createdAt,value
2022-09-12T00:03:31.946Z,22.75
2022-09-12T00:08:34.824Z,26.10
2022-09-12T00:13:41.655Z,17.33
2022-09-12T00:18:47.277Z,20.92
2022-09-12T00:23:50.503Z,25.88
2022-09-12T00:28:53.435Z,18.63
2022-09-12T00:34:00.579Z,22.63
2022-09-12T00:39:04.403Z,21.25
2022-09-12T00:44:40.529Z,23.98
2022-09-12T00:49:49.651Z,37.10
2022-09-12T00:54:57.574Z,27.80
2022-09-12T01:00:05.721Z,19.83
2022-09-12T01:05:11.057Z,19.60
2022-09-12T01:10:13.727Z,16.65
2022-09-12T01:15:16.587Z,20.05
2022-09-12T01:20:47.356Z,21.35
2022-09-12T01:26:06.788Z,17.05
2022-09-12T01:31:16.036Z,20.27
2022-09-12T01:36:38.116Z,16.00
2022-09-12T01:41:53.856Z,26.55
2022-09-12T01:47:03.409Z,18.38
2022-09-12T01:52:13.436Z,16.55
2022-09-12T01:57:21.745Z,17.42
2022-09-12T02:02:32.995Z,19.85
2022-09-12T02:07:40.584Z,20.60
2022-09-12T02:12:49.102Z,17.40
2022-09-12T02:17:55.261Z,24.40
2022-09-12T02:22:59.253Z,20.58
2022-09-12T02:28:07.610Z,21.35
2022-09-12T02:33:21.737Z,17.25
2022-09-12T02:38:29.199Z,24.67
2022-09-12T02:48:41.519Z,18.10
2022-09-12T02:53:44.386Z,15.38
2022-09-12T02:58:47.791Z,15.82
2022-09-12T03:04:04.963Z,16.58
2022-09-12T03:09:14.866Z,15.77
2022-09-12T03:14:37.079Z,18.50
2022-09-12T03:19:52.500Z,13.60
2022-09-12T03:25:04.239Z,13.52
2022-09-12T03:30:08.300Z,11.18
2022-09-12T03:35:13.599Z,18.92
2022-09-12T03:40:18.579Z,21.92
2022-09-12T03:45:21.267Z,13.43
2022-09-12T03:50:25.370Z,16.77
2022-09-12T03:55:28.275Z,19.85
2022-09-12T04:00:30.968Z,16.17
2022-09-12T04:05:36.409Z,14.82
2022-09-12T04:10:39.089Z,15.90
2022-09-12T04:15:41.868Z,14.07
2022-09-12T04:20:46.012Z,18.35
2022-09-12T04:25:55.687Z,15.90
2022-09-12T04:31:02.742Z,11.93
2022-09-12T04:36:10.038Z,27.45
2022-09-12T04:41:13.691Z,79.75
2022-09-12T04:46:19.771Z,35.72
2022-09-12T04:51:27.660Z,64.30
2022-09-12T04:56:31.545Z,66.22
2022-09-12T05:01:34.667Z,63.50
2022-09-12T05:06:39.906Z,44.67
2022-09-12T05:12:04.221Z,53.40
2022-09-12T05:17:07.706Z,74.90
2022-09-12T05:22:11.777Z,67.95
2022-09-12T05:27:14.481Z,72.25
2022-09-12T05:32:17.162Z,65.47
2022-09-12T05:37:21.237Z,55.42
2022-09-12T05:42:24.018Z,53.30
2022-09-12T05:47:26.845Z,50.53
2022-09-12T05:52:31.029Z,56.65
2022-09-12T05:57:34.246Z,60.25
2022-09-12T06:02:37.079Z,48.88
2022-09-12T06:07:41.250Z,40.25
2022-09-12T06:12:46.211Z,48.88
2022-09-12T06:17:51.455Z,24.85
2022-09-12T06:22:55.678Z,22.00
2022-09-12T06:27:58.390Z,50.83
2022-09-12T06:33:01.068Z,38.35
2022-09-12T06:38:05.421Z,40.13
2022-09-12T06:43:08.102Z,42.55
2022-09-12T06:48:10.841Z,24.92
2022-09-12T06:53:14.846Z,23.88
2022-09-12T06:58:17.578Z,32.75
2022-09-12T07:03:20.593Z,19.92
2022-09-12T07:08:25.836Z,17.67
2022-09-12T07:13:28.595Z,17.33
2022-09-12T07:18:31.470Z,14.73
2022-09-12T07:23:35.598Z,25.90
2022-09-12T07:28:38.343Z,16.67
2022-09-12T07:33:42.181Z,16.52
2022-09-12T07:38:47.401Z,16.70
2022-09-12T07:43:53.101Z,18.80
2022-09-12T07:48:59.306Z,24.17
2022-09-12T07:54:03.577Z,17.65
2022-09-12T07:59:06.264Z,14.95
2022-09-12T08:04:09.122Z,16.98
2022-09-12T08:09:15.287Z,21.42
2022-09-12T08:14:18.273Z,22.25
2022-09-12T08:19:22.662Z,24.45
2022-09-12T08:24:26.803Z,16.20
2022-09-12T08:29:30.023Z,22.08
2022-09-12T08:34:32.815Z,22.25
2022-09-12T08:39:37.079Z,16.60
2022-09-12T08:45:04.845Z,27.15
2022-09-12T08:50:17.685Z,23.45
2022-09-12T08:55:32.216Z,25.05
2022-09-12T09:00:42.869Z,20.63
2022-09-12T09:05:52.798Z,15.82
2022-09-12T09:11:06.039Z,17.38
2022-09-12T09:16:17.026Z,19.50
2022-09-12T09:21:24.771Z,24.90
2022-09-12T09:26:36.318Z,21.85
2022-09-12T09:31:40.951Z,31.00
2022-09-12T09:36:50.716Z,17.35
2022-09-12T09:42:09.723Z,20.52
2022-09-12T09:47:13.567Z,17.70
2022-09-12T09:52:22.079Z,21.65
2022-09-12T09:57:52.341Z,20.92
2022-09-12T10:03:18.903Z,19.75
2022-09-12T10:13:33.283Z,19.42
2022-09-12T10:18:39.107Z,17.33
2022-09-12T10:23:43.174Z,11.88
2022-09-12T10:28:52.047Z,14.88
2022-09-12T10:33:55.959Z,25.15
2022-09-12T10:39:02.242Z,14.93
2022-09-12T10:44:15.797Z,13.07
2022-09-12T10:49:40.314Z,13.68
2022-09-12T10:54:43.353Z,14.02
2022-09-12T11:00:03.522Z,10.80
2022-09-12T11:05:17.455Z,11.38
2022-09-12T11:10:38.069Z,14.63
2022-09-12T11:16:02.892Z,11.35
2022-09-12T11:21:20.545Z,13.50
2022-09-12T11:26:35.904Z,13.45
2022-09-12T11:31:52.851Z,9.25
2022-09-12T11:37:16.210Z,7.40
2022-09-12T11:42:29.673Z,7.85
2022-09-12T11:47:37.436Z,12.45
2022-09-12T11:52:40.638Z,7.57
2022-09-12T11:57:46.293Z,9.98
2022-09-12T12:02:58.688Z,8.13
2022-09-12T12:08:03.323Z,9.73
2022-09-12T12:13:14.011Z,6.55
2022-09-12T12:18:21.011Z,6.28
2022-09-12T12:23:30.129Z,6.30
2022-09-12T12:29:00.913Z,9.95
2022-09-12T12:34:24.018Z,12.55
2022-09-12T12:40:00.979Z,5.90
2022-09-12T12:45:05.303Z,5.70
2022-09-12T12:55:52.099Z,14.02
2022-09-12T13:01:08.701Z,5.90
2022-09-12T13:06:31.443Z,5.80
2022-09-12T13:11:37.545Z,6.75
2022-09-12T13:16:52.699Z,10.45
2022-09-12T13:22:02.148Z,6.30
2022-09-12T13:27:04.977Z,3.92
2022-09-12T13:32:07.773Z,3.53
2022-09-12T13:37:26.365Z,2.92
2022-09-12T13:42:43.702Z,4.03
2022-09-12T13:47:48.570Z,3.20
2022-09-12T13:52:56.016Z,6.85
2022-09-12T13:58:01.518Z,5.13
2022-09-12T14:03:42.827Z,3.67
2022-09-12T14:08:48.436Z,4.68
2022-09-12T14:13:52.622Z,3.00
2022-09-12T14:18:56.086Z,4.93
2022-09-12T14:24:00.772Z,4.20
2022-09-12T14:29:06.574Z,4.03
2022-09-12T14:34:11.950Z,11.43
2022-09-12T14:39:25.532Z,6.30
2022-09-12T14:44:29.586Z,4.75
2022-09-12T14:49:35.590Z,4.70
2022-09-12T14:54:56.295Z,3.47
2022-09-12T15:00:20.467Z,5.47
2022-09-12T15:05:26.415Z,4.45
2022-09-12T15:10:33.244Z,5.20
2022-09-12T15:15:36.811Z,4.35
2022-09-12T15:20:40.978Z,6.13
2022-09-12T15:25:45.037Z,3.72
2022-09-12T15:30:49.513Z,8.82
2022-09-12T15:35:53.518Z,10.02
2022-09-12T15:40:57.676Z,5.78
2022-09-12T15:46:04.369Z,12.75
2022-09-12T15:51:09.946Z,4.18
2022-09-12T15:56:17.438Z,7.50
2022-09-12T16:01:20.273Z,3.83
2022-09-12T16:06:23.429Z,7.38
2022-09-12T16:11:28.539Z,6.07
2022-09-12T16:16:31.305Z,3.35
2022-09-12T16:21:33.975Z,3.22
2022-09-12T16:26:38.125Z,4.68
2022-09-12T16:31:41.852Z,3.45
2022-09-12T16:36:45.229Z,5.47
2022-09-12T16:41:49.368Z,5.13
2022-09-12T16:46:52.107Z,6.13
2022-09-12T16:51:54.811Z,6.13
2022-09-12T16:56:59.763Z,5.05
2022-09-12T17:02:03.254Z,5.10
2022-09-12T17:07:06.286Z,4.10
2022-09-12T17:12:10.687Z,5.88
2022-09-12T17:17:13.383Z,5.88
2022-09-12T17:22:16.049Z,10.02
2022-09-12T17:27:20.794Z,4.60
2022-09-12T17:32:24.598Z,6.97
2022-09-12T17:37:27.974Z,7.82
2022-09-12T17:42:32.074Z,11.73
2022-09-12T17:47:35.156Z,4.20
2022-09-12T17:52:38.531Z,9.48
2022-09-12T17:57:43.901Z,20.45
2022-09-12T18:02:47.411Z,7.65
2022-09-12T18:07:50.298Z,6.28
2022-09-12T18:12:54.395Z,4.95
2022-09-12T18:17:57.081Z,10.65
2022-09-12T18:23:00.188Z,4.50
2022-09-12T18:28:09.166Z,6.05
2022-09-12T18:33:12.098Z,5.32
2022-09-12T18:38:14.912Z,7.38
2022-09-12T18:43:19.348Z,10.90
2022-09-12T18:48:22.072Z,6.95
2022-09-12T18:53:25.513Z,6.20
2022-09-12T18:58:29.905Z,6.38
2022-09-12T19:03:32.884Z,8.90
2022-09-12T19:08:36.551Z,8.20
2022-09-12T19:13:42.279Z,4.28
2022-09-12T19:18:46.996Z,8.48
2022-09-12T19:23:50.181Z,6.07
2022-09-12T19:28:54.922Z,7.60
2022-09-12T19:34:01.733Z,5.75
2022-09-12T19:39:05.843Z,7.05
2022-09-12T19:44:10.027Z,8.05
2022-09-12T19:49:13.634Z,6.13
2022-09-12T19:54:16.408Z,6.88
2022-09-12T19:59:20.519Z,5.68
2022-09-12T20:04:23.947Z,5.72
2022-09-12T20:09:26.605Z,8.18
2022-09-12T20:14:30.993Z,7.10
2022-09-12T20:19:34.949Z,6.50
2022-09-12T20:24:38.274Z,5.90
2022-09-12T20:29:42.323Z,7.40
2022-09-12T20:34:45.295Z,10.07
2022-09-12T20:39:50.867Z,6.68
2022-09-12T20:44:55.960Z,8.85
2022-09-12T20:49:58.679Z,8.10
2022-09-12T20:55:01.537Z,13.07
2022-09-12T21:00:08.781Z,9.25
2022-09-12T21:10:14.071Z,8.93
2022-09-12T21:15:18.375Z,11.38
2022-09-12T21:20:21.129Z,10.57
2022-09-12T21:25:24.631Z,7.90
2022-09-12T21:30:29.820Z,8.10
2022-09-12T21:35:35.229Z,8.30
2022-09-12T21:40:38.252Z,15.00
2022-09-12T21:45:42.414Z,9.82
2022-09-12T21:50:50.695Z,7.43
2022-09-12T21:55:53.671Z,6.55
2022-09-12T22:00:58.006Z,11.25
2022-09-12T22:06:02.512Z,8.25
2022-09-12T22:11:09.439Z,12.50
2022-09-12T22:16:13.679Z,13.30
2022-09-12T22:21:19.105Z,6.90
2022-09-12T22:26:22.151Z,12.45
2022-09-12T22:31:26.950Z,8.25
2022-09-12T22:36:31.407Z,11.48
2022-09-12T22:41:35.061Z,10.48
2022-09-12T22:46:39.649Z,17.88
2022-09-12T22:51:42.618Z,10.80
2022-09-12T22:56:45.528Z,12.80
2022-09-12T23:01:49.661Z,9.98
2022-09-12T23:06:52.961Z,12.15
2022-09-12T23:11:56.203Z,16.30
2022-09-12T23:17:00.226Z,12.13
2022-09-12T23:22:02.895Z,10.93
2022-09-12T23:27:06.113Z,6.88
2022-09-12T23:32:10.504Z,9.32
2022-09-12T23:37:13.607Z,10.32
2022-09-12T23:42:16.666Z,14.77
2022-09-12T23:47:22.945Z,7.60
2022-09-12T23:52:25.669Z,8.70
2022-09-12T23:57:28.779Z,8.70
